Time;durP1;ratioP1;P1;durP2;ratioP2;P2;SDS_P1;SDS_P2;PMS_P1;PMS_P2;Temp;Humidity;BMP_temperature;BMP_pressure;BME280_temperature;BME280_humidity;BME280_pressure;Samples;Min_cycle;Max_cycle;Signal;HPM_P1;HPM_P2
2023/09/12 00:01:56;;;;;;;;;;;;;;;;;;5006410;28;5068;-66
2023/09/12 00:04:21;;;;;;;;;;;;;;;;;;5010647;28;1216;-68
2023/09/12 00:06:47;;;;;;;;;;;;;;;;;;5006153;28;4976;-66
2023/09/12 00:09:12;;;;;;;;;;;;;;;;;;5008515;28;5138;-67
2023/09/12 00:11:37;;;;;;;;;;;;;;;;;;5008997;28;4470;-66
2023/09/12 00:14:02;;;;;;;;;;;;;;;;;;5005952;28;5060;-66
2023/09/12 00:16:28;;;;;;;;;;;;;;;;;;5002923;28;1173;-66
2023/09/12 00:18:53;;;;;;;;;;;;;;;;;;5009071;28;4608;-66
2023/09/12 00:21:18;;;;;;;;;;;;;;;;;;5002985;28;4652;-67
2023/09/12 00:23:44;;;;;;;;;;;;;;;;;;5005563;28;4982;-64
2023/09/12 00:26:09;;;;;;;;;;;;;;;;;;5004080;28;5433;-66
2023/09/12 00:28:34;;;;;;;;;;;;;;;;;;5004342;28;1150;-66
2023/09/12 00:30:59;;;;;;;;;;;;;;;;;;5000252;28;4948;-66
2023/09/12 00:33:25;;;;;;;;;;;;;;;;;;5002375;28;5023;-66
2023/09/12 00:35:50;;;;;;;;;;;;;;;;;;5004143;28;5331;-67
2023/09/12 00:38:15;;;;;;;;;;;;;;;;;;5002150;28;4939;-67
2023/09/12 00:40:40;;;;;;;;;;;;;;;;;;5001792;28;1060;-67
2023/09/12 00:43:06;;;;;;;;;;;;;;;;;;5007780;28;5121;-66
2023/09/12 00:45:31;;;;;;;;;;;;;;;;;;5004881;28;5043;-67
2023/09/12 00:47:57;;;;;;;;;;;;;;;;;;5006161;28;5089;-66
2023/09/12 00:50:23;;;;;;;;;;;;;;;;;;5003155;28;5063;-66
2023/09/12 00:52:48;;;;;;;;;;;;;;;;;;5009060;28;4444;-66
2023/09/12 00:55:14;;;;;;;;;;;;;;;;;;5024453;28;1364;-65
2023/09/12 00:57:39;;;;;;;;;;;;;;;;;;5003874;28;4697;-65
2023/09/12 01:00:10;;;;;;;;;;;;;;;;;;5008304;28;5001;-67
2023/09/12 01:02:37;;;;;;;;;;;;;;;;;;5006600;28;4648;-67
2023/09/12 01:05:02;;;;;;;;;;;;;;;;;;5019472;28;4866;-67
2023/09/12 01:07:28;;;;;;;;;;;;;;;;;;5007615;28;1158;-67
2023/09/12 01:09:53;;;;;;;;;;;;;;;;;;4990814;28;4634;-66
2023/09/12 01:12:18;;;;;;;;;;;;;;;;;;5018656;28;4507;-67
2023/09/12 01:14:44;;;;;;;;;;;;;;;;;;5021219;28;5396;-66
2023/09/12 01:17:09;;;;;;;;;;;;;;;;;;5007265;28;5147;-68
2023/09/12 01:19:34;;;;;;;;;;;;;;;;;;5010399;28;3316;-67
2023/09/12 01:22:05;;;;;;;;;;;;;;;;;;5006277;28;4438;-67
2023/09/12 01:24:30;;;;;;;;;;;;;;;;;;5006769;28;5237;-68
2023/09/12 01:26:56;;;;;;;;;;;;;;;;;;4998095;28;4706;-69
2023/09/12 01:29:21;;;;;;;;;;;;;;;;;;4999997;28;5133;-68
2023/09/12 01:31:46;;;;;;;;;;;;;;;;;;5022625;28;3152;-66
2023/09/12 01:34:12;;;;;;;;;;;;;;;;;;5006506;28;4904;-68
2023/09/12 01:36:37;;;;;;;;;;;;;;;;;;5008157;28;5120;-67
2023/09/12 01:39:02;;;;;;;;;;;;;;;;;;5007024;28;5123;-69
2023/09/12 01:41:28;;;;;;;;;;;;;;;;;;5018555;28;5184;-67
2023/09/12 01:43:53;;;;;;;;;;;;;;;;;;5022292;28;4961;-68
2023/09/12 01:46:18;;;;;;;;;;;;;;;;;;5024006;28;2151;-68
2023/09/12 01:48:44;;;;;;;;;;;;;;;;;;4990796;28;4961;-66
2023/09/12 01:51:09;;;;;;;;;;;;;;;;;;5008078;28;4991;-63
2023/09/12 01:53:34;;;;;;;;;;;;;;;;;;5021438;28;4776;-65
2023/09/12 01:55:59;;;;;;;;;;;;;;;;;;5003800;28;5054;-66
2023/09/12 01:58:25;;;;;;;;;;;;;;;;;;5014608;28;1930;-67
2023/09/12 02:00:51;;;;;;;;;;;;;;;;;;5004104;28;4979;-66
2023/09/12 02:03:17;;;;;;;;;;;;;;;;;;5003614;28;4968;-66
2023/09/12 02:05:42;;;;;;;;;;;;;;;;;;5007679;28;4477;-67
2023/09/12 02:08:07;;;;;;;;;;;;;;;;;;5004421;28;5211;-67
2023/09/12 02:10:33;;;;;;;;;;;;;;;;;;5008490;28;1094;-66
2023/09/12 02:12:58;;;;;;;;;;;;;;;;;;5003984;28;4901;-68
2023/09/12 02:15:23;;;;;;;;;;;;;;;;;;5005955;28;4472;-66
2023/09/12 02:17:50;;;;;;;;;;;;;;;;;;5005255;28;4986;-65
2023/09/12 02:20:15;;;;;;;;;;;;;;;;;;4998114;28;4445;-67
2023/09/12 02:22:41;;;;;;;;;;;;;;;;;;5004910;28;1326;-67
2023/09/12 02:25:06;;;;;;;;;;;;;;;;;;5010387;28;4929;-67
2023/09/12 02:27:31;;;;;;;;;;;;;;;;;;4997862;28;4765;-65
2023/09/12 02:29:56;;;;;;;;;;;;;;;;;;5007797;28;4543;-67
2023/09/12 02:32:22;;;;;;;;;;;;;;;;;;5006381;28;5262;-68
2023/09/12 02:34:47;;;;;;;;;;;;;;;;;;5007075;28;4823;-66
2023/09/12 02:37:12;;;;;;;;;;;;;;;;;;5002650;28;4990;-68
2023/09/12 02:39:38;;;;;;;;;;;;;;;;;;5003170;28;5029;-66
2023/09/12 02:42:03;;;;;;;;;;;;;;;;;;5000423;28;4669;-68
2023/09/12 02:44:28;;;;;;;;;;;;;;;;;;5006042;28;4502;-68
2023/09/12 02:46:54;;;;;;;;;;;;;;;;;;5007647;28;5037;-67
2023/09/12 02:49:19;;;;;;;;;;;;;;;;;;5007586;28;2230;-66
2023/09/12 02:51:45;;;;;;;;;;;;;;;;;;5004786;28;4643;-68
2023/09/12 02:54:10;;;;;;;;;;;;;;;;;;5007882;28;5004;-67
2023/09/12 02:56:35;;;;;;;;;;;;;;;;;;5009468;28;4626;-67
2023/09/12 02:59:01;;;;;;;;;;;;;;;;;;5011072;28;5065;-67
2023/09/12 03:01:28;;;;;;;;;;;;;;;;;;5002221;28;1508;-66
2023/09/12 03:03:53;;;;;;;;;;;;;;;;;;5009339;28;4968;-67
2023/09/12 03:06:18;;;;;;;;;;;;;;;;;;5008062;28;5139;-67
2023/09/12 03:08:43;;;;;;;;;;;;;;;;;;5007621;28;5024;-64
2023/09/12 03:11:09;;;;;;;;;;;;;;;;;;5009083;28;4475;-66
2023/09/12 03:13:35;;;;;;;;;;;;;;;;;;5010834;28;1195;-67
2023/09/12 03:16:01;;;;;;;;;;;;;;;;;;4990528;28;5059;-66
2023/09/12 03:18:26;;;;;;;;;;;;;;;;;;5006698;28;4464;-66
2023/09/12 03:20:51;;;;;;;;;;;;;;;;;;5008718;28;5107;-66
2023/09/12 03:23:17;;;;;;;;;;;;;;;;;;5012787;28;4869;-67
2023/09/12 03:25:42;;;;;;;;;;;;;;;;;;5007935;28;1385;-64
2023/09/12 03:28:07;;;;;;;;;;;;;;;;;;5007044;28;4575;-67
2023/09/12 03:30:33;;;;;;;;;;;;;;;;;;5010322;28;5095;-67
2023/09/12 03:32:58;;;;;;;;;;;;;;;;;;4992849;28;5255;-66
2023/09/12 03:35:23;;;;;;;;;;;;;;;;;;4994387;28;5111;-65
2023/09/12 03:37:49;;;;;;;;;;;;;;;;;;5004567;28;4848;-66
2023/09/12 03:40:14;;;;;;;;;;;;;;;;;;5010190;28;2316;-66
2023/09/12 03:42:39;;;;;;;;;;;;;;;;;;5008285;28;4548;-67
2023/09/12 03:45:05;;;;;;;;;;;;;;;;;;5007693;28;5033;-67
2023/09/12 03:47:30;;;;;;;;;;;;;;;;;;5004509;28;5060;-67
2023/09/12 03:49:55;;;;;;;;;;;;;;;;;;4991102;28;5050;-66
2023/09/12 03:52:21;;;;;;;;;;;;;;;;;;5006617;28;3363;-67
2023/09/12 03:54:46;;;;;;;;;;;;;;;;;;5008140;28;4467;-67
2023/09/12 03:57:11;;;;;;;;;;;;;;;;;;5009245;28;5086;-68
2023/09/12 03:59:36;;;;;;;;;;;;;;;;;;5019445;28;4745;-67
2023/09/12 04:02:03;;;;;;;;;;;;;;;;;;5003291;28;4517;-66
2023/09/12 04:04:28;;;;;;;;;;;;;;;;;;5006303;28;3388;-67
2023/09/12 04:06:54;;;;;;;;;;;;;;;;;;5004062;28;5021;-66
2023/09/12 04:09:19;;;;;;;;;;;;;;;;;;5005106;28;5119;-67
2023/09/12 04:11:45;;;;;;;;;;;;;;;;;;5006769;28;4655;-67
2023/09/12 04:14:10;;;;;;;;;;;;;;;;;;5005372;28;5104;-66
2023/09/12 04:16:35;;;;;;;;;;;;;;;;;;5002970;28;3334;-67
2023/09/12 04:19:01;;;;;;;;;;;;;;;;;;5020296;28;4825;-66
2023/09/12 04:21:26;;;;;;;;;;;;;;;;;;5004185;28;4638;-66
2023/09/12 04:23:51;;;;;;;;;;;;;;;;;;5008559;28;4446;-66
2023/09/12 04:26:16;;;;;;;;;;;;;;;;;;5007192;28;5046;-67
2023/09/12 04:28:43;;;;;;;;;;;;;;;;;;5004599;28;3253;-68
2023/09/12 04:31:08;;;;;;;;;;;;;;;;;;5007148;28;4608;-66
2023/09/12 04:33:33;;;;;;;;;;;;;;;;;;5008446;28;4659;-66
2023/09/12 04:36:00;;;;;;;;;;;;;;;;;;5000150;28;5138;-67
2023/09/12 04:38:25;;;;;;;;;;;;;;;;;;5007427;28;4680;-65
2023/09/12 04:40:55;;;;;;;;;;;;;;;;;;5006911;28;5055;-66
2023/09/12 04:43:20;;;;;;;;;;;;;;;;;;5005439;28;3528;-66
2023/09/12 04:45:45;;;;;;;;;;;;;;;;;;5006211;28;5122;-66
2023/09/12 04:48:11;;;;;;;;;;;;;;;;;;5004999;28;5147;-67
2023/09/12 04:50:40;;;;;;;;;;;;;;;;;;4990139;28;5284;-68
2023/09/12 04:53:06;;;;;;;;;;;;;;;;;;5002127;28;5171;-68
2023/09/12 04:55:31;;;;;;;;;;;;;;;;;;5009270;28;3459;-67
2023/09/12 04:57:56;;;;;;;;;;;;;;;;;;5003321;28;5156;-68
2023/09/12 05:00:21;;;;;;;;;;;;;;;;;;5008520;28;5009;-68
2023/09/12 05:02:47;;;;;;;;;;;;;;;;;;5002087;28;4963;-67
2023/09/12 05:05:12;;;;;;;;;;;;;;;;;;5008603;28;5047;-68
2023/09/12 05:07:37;;;;;;;;;;;;;;;;;;5002947;28;3423;-66
2023/09/12 05:10:03;;;;;;;;;;;;;;;;;;5001140;28;5008;-67
2023/09/12 05:12:28;;;;;;;;;;;;;;;;;;5002653;28;5150;-67
2023/09/12 05:14:54;;;;;;;;;;;;;;;;;;4996248;28;4545;-65
2023/09/12 05:17:19;;;;;;;;;;;;;;;;;;5006056;28;5035;-67
2023/09/12 05:19:44;;;;;;;;;;;;;;;;;;4981928;28;3578;-67
2023/09/12 05:22:10;;;;;;;;;;;;;;;;;;5006890;28;4592;-67
2023/09/12 05:24:35;;;;;;;;;;;;;;;;;;5004672;28;4632;-67
2023/09/12 05:27:00;;;;;;;;;;;;;;;;;;5002847;28;5090;-67
2023/09/12 05:29:25;;;;;;;;;;;;;;;;;;5002825;28;4509;-66
2023/09/12 05:31:51;;;;;;;;;;;;;;;;;;4997081;28;5054;-67
2023/09/12 05:34:16;;;;;;;;;;;;;;;;;;5006135;28;4814;-67
2023/09/12 05:36:41;;;;;;;;;;;;;;;;;;5006507;28;5031;-66
2023/09/12 05:39:06;;;;;;;;;;;;;;;;;;4985111;28;5093;-65
2023/09/12 05:41:32;;;;;;;;;;;;;;;;;;5002071;28;4671;-67
2023/09/12 05:43:57;;;;;;;;;;;;;;;;;;5002344;28;4922;-66
2023/09/12 05:46:22;;;;;;;;;;;;;;;;;;5002848;28;3717;-67
2023/09/12 05:48:48;;;;;;;;;;;;;;;;;;5002296;28;5075;-67
2023/09/12 05:51:13;;;;;;;;;;;;;;;;;;5003865;28;5086;-66
2023/09/12 05:53:38;;;;;;;;;;;;;;;;;;5004156;28;5049;-67
2023/09/12 05:56:04;;;;;;;;;;;;;;;;;;5004178;28;4617;-66
2023/09/12 05:58:29;;;;;;;;;;;;;;;;;;5001455;28;1919;-65
2023/09/12 06:00:55;;;;;;;;;;;;;;;;;;5004283;28;4601;-65
2023/09/12 06:03:20;;;;;;;;;;;;;;;;;;5000197;28;5317;-66
2023/09/12 06:05:46;;;;;;;;;;;;;;;;;;5004905;28;5501;-65
2023/09/12 06:08:11;;;;;;;;;;;;;;;;;;4997320;28;4944;-66
2023/09/12 06:10:36;;;;;;;;;;;;;;;;;;5005816;28;3388;-64
2023/09/12 06:13:02;;;;;;;;;;;;;;;;;;4997669;28;5057;-64
2023/09/12 06:15:27;;;;;;;;;;;;;;;;;;5012491;28;4729;-65
2023/09/12 06:17:53;;;;;;;;;;;;;;;;;;5003718;28;5074;-65
2023/09/12 06:20:19;;;;;;;;;;;;;;;;;;5006598;28;5048;-65
2023/09/12 06:22:44;;;;;;;;;;;;;;;;;;5006180;28;1153;-65
2023/09/12 06:25:09;;;;;;;;;;;;;;;;;;5001083;28;4590;-66
2023/09/12 06:27:34;;;;;;;;;;;;;;;;;;4983798;28;5033;-65
2023/09/12 06:30:00;;;;;;;;;;;;;;;;;;5008585;28;4727;-65
2023/09/12 06:32:25;;;;;;;;;;;;;;;;;;5010116;28;5091;-66
2023/09/12 06:34:50;;;;;;;;;;;;;;;;;;5004948;28;5351;-65
2023/09/12 06:37:16;;;;;;;;;;;;;;;;;;5005370;28;3528;-64
2023/09/12 06:39:41;;;;;;;;;;;;;;;;;;5005242;28;5270;-65
2023/09/12 06:42:07;;;;;;;;;;;;;;;;;;5006148;28;4978;-65
2023/09/12 06:44:32;;;;;;;;;;;;;;;;;;5003633;28;4684;-65
2023/09/12 06:46:57;;;;;;;;;;;;;;;;;;5008280;28;5012;-67
2023/09/12 06:49:22;;;;;;;;;;;;;;;;;;5002802;28;3386;-66
2023/09/12 06:51:48;;;;;;;;;;;;;;;;;;5005344;28;4539;-66
2023/09/12 06:54:14;;;;;;;;;;;;;;;;;;5004967;28;5078;-65
2023/09/12 06:56:42;;;;;;;;;;;;;;;;;;5008353;28;4748;-68
2023/09/12 06:59:07;;;;;;;;;;;;;;;;;;5008421;28;4930;-65
2023/09/12 07:01:32;;;;;;;;;;;;;;;;;;5006176;28;3375;-67
2023/09/12 07:03:58;;;;;;;;;;;;;;;;;;5003344;28;4948;-63
2023/09/12 07:06:23;;;;;;;;;;;;;;;;;;5009453;28;5098;-61
2023/09/12 07:08:48;;;;;;;;;;;;;;;;;;5005177;28;5176;-64
2023/09/12 07:11:14;;;;;;;;;;;;;;;;;;5006965;28;5018;-66
2023/09/12 07:13:39;;;;;;;;;;;;;;;;;;4992317;28;3342;-66
2023/09/12 07:16:05;;;;;;;;;;;;;;;;;;5003723;28;4962;-67
2023/09/12 07:18:32;;;;;;;;;;;;;;;;;;5003010;28;5108;-69
2023/09/12 07:21:01;;;;;;;;;;;;;;;;;;4987519;28;4930;-65
2023/09/12 07:23:26;;;;;;;;;;;;;;;;;;5005689;28;4862;-66
2023/09/12 07:25:52;;;;;;;;;;;;;;;;;;5019268;28;4587;-64
2023/09/12 07:28:18;;;;;;;;;;;;;;;;;;4986768;28;3494;-65
2023/09/12 07:30:45;;;;;;;;;;;;;;;;;;5007500;28;5017;-67
2023/09/12 07:33:10;;;;;;;;;;;;;;;;;;5015310;28;5114;-68
2023/09/12 07:35:35;;;;;;;;;;;;;;;;;;5005198;28;5063;-67
2023/09/12 07:38:01;;;;;;;;;;;;;;;;;;5006731;28;5023;-66
2023/09/12 07:40:26;;;;;;;;;;;;;;;;;;5008532;28;3423;-66
2023/09/12 07:42:52;;;;;;;;;;;;;;;;;;5005945;28;4511;-68
2023/09/12 07:45:17;;;;;;;;;;;;;;;;;;5018891;28;5719;-65
2023/09/12 07:47:43;;;;;;;;;;;;;;;;;;5002686;28;5063;-62
2023/09/12 07:50:08;;;;;;;;;;;;;;;;;;5005997;28;5066;-62
2023/09/12 07:52:34;;;;;;;;;;;;;;;;;;5009657;28;3299;-65
2023/09/12 07:55:00;;;;;;;;;;;;;;;;;;5005586;28;5181;-67
2023/09/12 07:57:25;;;;;;;;;;;;;;;;;;4998970;28;4449;-68
2023/09/12 07:59:50;;;;;;;;;;;;;;;;;;5004236;28;4552;-67
2023/09/12 08:02:15;;;;;;;;;;;;;;;;;;5006310;28;5047;-68
2023/09/12 08:04:41;;;;;;;;;;;;;;;;;;5008150;28;3313;-61
2023/09/12 08:07:06;;;;;;;;;;;;;;;;;;5006162;28;5067;-58
2023/09/12 08:09:50;;;;;;;;;;;;;;;;;;5003586;28;5070;-58
2023/09/12 08:12:16;;;;;;;;;;;;;;;;;;5001623;28;4688;-57
2023/09/12 08:14:41;;;;;;;;;;;;;;;;;;5004901;28;5256;-55
2023/09/12 08:17:06;;;;;;;;;;;;;;;;;;5002505;28;5007;-61
2023/09/12 08:19:31;;;;;;;;;;;;;;;;;;5007392;28;3350;-59
2023/09/12 08:21:56;;;;;;;;;;;;;;;;;;4983238;28;4621;-59
2023/09/12 08:24:22;;;;;;;;;;;;;;;;;;4978676;28;5150;-58
2023/09/12 08:26:47;;;;;;;;;;;;;;;;;;4976567;28;5062;-59
2023/09/12 08:29:12;;;;;;;;;;;;;;;;;;4986321;28;4773;-59
2023/09/12 08:31:37;;;;;;;;;;;;;;;;;;5002196;28;3355;-59
2023/09/12 08:34:03;;;;;;;;;;;;;;;;;;5009366;28;4798;-59
2023/09/12 08:36:28;;;;;;;;;;;;;;;;;;4988033;28;5014;-59
2023/09/12 08:38:53;;;;;;;;;;;;;;;;;;5005909;28;5263;-60
2023/09/12 08:41:19;;;;;;;;;;;;;;;;;;5006000;28;5533;-58
2023/09/12 08:43:44;;;;;;;;;;;;;;;;;;5007800;28;3283;-59
2023/09/12 08:46:09;;;;;;;;;;;;;;;;;;4997044;28;4525;-59
2023/09/12 08:48:36;;;;;;;;;;;;;;;;;;4999939;28;5132;-58
2023/09/12 08:51:03;;;;;;;;;;;;;;;;;;5003808;28;5141;-58
2023/09/12 08:53:28;;;;;;;;;;;;;;;;;;5017964;28;5066;-59
2023/09/12 08:55:53;;;;;;;;;;;;;;;;;;5017383;28;5277;-59
2023/09/12 08:58:19;;;;;;;;;;;;;;;;;;5003708;28;3451;-58
2023/09/12 09:00:44;;;;;;;;;;;;;;;;;;4999656;28;4994;-59
2023/09/12 09:03:09;;;;;;;;;;;;;;;;;;5005600;28;4512;-59
2023/09/12 09:05:35;;;;;;;;;;;;;;;;;;5004037;28;5182;-59
2023/09/12 09:08:00;;;;;;;;;;;;;;;;;;5019747;28;5011;-59
2023/09/12 09:10:27;;;;;;;;;;;;;;;;;;5005409;28;3544;-58
2023/09/12 09:12:52;;;;;;;;;;;;;;;;;;5003204;28;5059;-59
2023/09/12 09:15:37;;;;;;;;;;;;;;;;;;5004287;28;4784;-58
2023/09/12 09:18:03;;;;;;;;;;;;;;;;;;5013001;28;4639;-59
2023/09/12 09:20:29;;;;;;;;;;;;;;;;;;5004963;28;5143;-59
2023/09/12 09:23:01;;;;;;;;;;;;;;;;;;5002819;28;5015;-57
2023/09/12 09:25:26;;;;;;;;;;;;;;;;;;5003162;28;3281;-58
2023/09/12 09:27:51;;;;;;;;;;;;;;;;;;4996984;28;5135;-58
2023/09/12 09:30:18;;;;;;;;;;;;;;;;;;5005322;28;4943;-59
2023/09/12 09:32:45;;;;;;;;;;;;;;;;;;5006168;28;5098;-59
2023/09/12 09:35:10;;;;;;;;;;;;;;;;;;5018122;28;4982;-59
2023/09/12 09:37:36;;;;;;;;;;;;;;;;;;5007184;28;3575;-59
2023/09/12 09:40:04;;;;;;;;;;;;;;;;;;5003908;28;4477;-62
2023/09/12 09:42:29;;;;;;;;;;;;;;;;;;5012773;28;5075;-60
2023/09/12 09:44:55;;;;;;;;;;;;;;;;;;5004866;28;5207;-61
2023/09/12 09:47:20;;;;;;;;;;;;;;;;;;4978494;28;5208;-58
2023/09/12 09:49:46;;;;;;;;;;;;;;;;;;5000778;28;3487;-60
2023/09/12 09:52:11;;;;;;;;;;;;;;;;;;5000532;28;4998;-61
2023/09/12 09:54:36;;;;;;;;;;;;;;;;;;5000045;28;5064;-60
2023/09/12 09:57:02;;;;;;;;;;;;;;;;;;5001434;28;4907;-60
2023/09/12 09:59:28;;;;;;;;;;;;;;;;;;5000097;28;4512;-60
2023/09/12 10:01:56;;;;;;;;;;;;;;;;;;5002215;28;5059;-60
2023/09/12 10:04:22;;;;;;;;;;;;;;;;;;5005723;28;1278;-59
2023/09/12 10:06:47;;;;;;;;;;;;;;;;;;5006509;28;5032;-60
2023/09/12 10:09:13;;;;;;;;;;;;;;;;;;5005535;28;5090;-59
2023/09/12 10:11:40;;;;;;;;;;;;;;;;;;5003524;28;4729;-60
2023/09/12 10:14:05;;;;;;;;;;;;;;;;;;5003656;28;5913;-58
2023/09/12 10:16:31;;;;;;;;;;;;;;;;;;4988948;28;2401;-59
2023/09/12 10:18:56;;;;;;;;;;;;;;;;;;4999433;28;5046;-59
2023/09/12 10:21:23;;;;;;;;;;;;;;;;;;4997422;28;5231;-59
2023/09/12 10:23:50;;;;;;;;;;;;;;;;;;4998679;28;5019;-59
2023/09/12 10:26:16;;;;;;;;;;;;;;;;;;4997089;28;4866;-59
2023/09/12 10:28:41;;;;;;;;;;;;;;;;;;5016981;28;1265;-59
2023/09/12 10:31:07;;;;;;;;;;;;;;;;;;4990738;28;4795;-59
2023/09/12 10:33:32;;;;;;;;;;;;;;;;;;5000333;28;5086;-59
2023/09/12 10:35:58;;;;;;;;;;;;;;;;;;5002682;28;5145;-60
2023/09/12 10:38:23;;;;;;;;;;;;;;;;;;5000252;28;4847;-61
2023/09/12 10:40:48;;;;;;;;;;;;;;;;;;4997518;28;5069;-61
2023/09/12 10:43:14;;;;;;;;;;;;;;;;;;5002833;28;1209;-60
2023/09/12 10:45:40;;;;;;;;;;;;;;;;;;5006466;28;5044;-60
2023/09/12 10:48:05;;;;;;;;;;;;;;;;;;5005506;28;4470;-60
2023/09/12 10:50:31;;;;;;;;;;;;;;;;;;5004416;28;5030;-61
2023/09/12 10:52:56;;;;;;;;;;;;;;;;;;4997729;28;4986;-60
2023/09/12 10:55:21;;;;;;;;;;;;;;;;;;5018517;28;1251;-59
2023/09/12 10:58:03;;;;;;;;;;;;;;;;;;5002375;28;5073;-59
2023/09/12 11:00:28;;;;;;;;;;;;;;;;;;5001992;28;6105;-58
2023/09/12 11:02:53;;;;;;;;;;;;;;;;;;5006308;28;4980;-59
2023/09/12 11:05:28;;;;;;;;;;;;;;;;;;5000897;28;5049;-60
2023/09/12 11:07:59;;;;;;;;;;;;;;;;;;5000779;28;5163;-60
2023/09/12 11:10:25;;;;;;;;;;;;;;;;;;5003292;28;1774;-60
2023/09/12 11:12:54;;;;;;;;;;;;;;;;;;5005525;28;5074;-59
2023/09/12 11:15:20;;;;;;;;;;;;;;;;;;5004242;28;4573;-59
2023/09/12 11:17:48;;;;;;;;;;;;;;;;;;5005585;28;5050;-61
2023/09/12 11:20:14;;;;;;;;;;;;;;;;;;5005870;28;5076;-59
2023/09/12 11:22:43;;;;;;;;;;;;;;;;;;5003595;28;1311;-60
2023/09/12 11:25:15;;;;;;;;;;;;;;;;;;5003448;28;5022;-59
2023/09/12 11:28:04;;;;;;;;;;;;;;;;;;5000430;28;4900;-60
2023/09/12 11:30:32;;;;;;;;;;;;;;;;;;4990674;28;5374;-60
2023/09/12 11:32:57;;;;;;;;;;;;;;;;;;5000003;28;5070;-59
2023/09/12 11:35:23;;;;;;;;;;;;;;;;;;5004603;28;5055;-60
2023/09/12 11:37:53;;;;;;;;;;;;;;;;;;5002983;28;5004;-61
2023/09/12 11:40:22;;;;;;;;;;;;;;;;;;5007239;28;1910;-60
2023/09/12 11:42:49;;;;;;;;;;;;;;;;;;5005032;28;5014;-60
2023/09/12 11:45:15;;;;;;;;;;;;;;;;;;5010355;28;5419;-60
2023/09/12 11:47:43;;;;;;;;;;;;;;;;;;4991952;28;5027;-60
2023/09/12 11:50:27;;;;;;;;;;;;;;;;;;5005097;28;5040;-60
2023/09/12 11:53:03;;;;;;;;;;;;;;;;;;5009776;28;4620;-60
2023/09/12 11:55:30;;;;;;;;;;;;;;;;;;5008495;28;1540;-60
2023/09/12 11:57:55;;;;;;;;;;;;;;;;;;5007858;28;5111;-60
2023/09/12 12:00:21;;;;;;;;;;;;;;;;;;5008978;28;5128;-60
2023/09/12 12:02:46;;;;;;;;;;;;;;;;;;5005670;28;5066;-60
2023/09/12 12:05:11;;;;;;;;;;;;;;;;;;5009382;28;4672;-60
2023/09/12 12:07:37;;;;;;;;;;;;;;;;;;5008238;28;1339;-60
2023/09/12 12:10:03;;;;;;;;;;;;;;;;;;5006725;28;4717;-59
2023/09/12 12:12:29;;;;;;;;;;;;;;;;;;5003746;28;4528;-60
2023/09/12 12:14:54;;;;;;;;;;;;;;;;;;5008331;28;4890;-60
2023/09/12 12:17:19;;;;;;;;;;;;;;;;;;5003576;28;5003;-60
2023/09/12 12:19:45;;;;;;;;;;;;;;;;;;5002050;28;1910;-59
2023/09/12 12:22:10;;;;;;;;;;;;;;;;;;5003630;28;5231;-60
2023/09/12 12:24:39;;;;;;;;;;;;;;;;;;5004053;28;4861;-59
2023/09/12 12:27:04;;;;;;;;;;;;;;;;;;5015486;28;4954;-59
2023/09/12 12:29:30;;;;;;;;;;;;;;;;;;5001608;28;4519;-60
2023/09/12 12:32:05;;;;;;;;;;;;;;;;;;5001233;28;4512;-60
2023/09/12 12:34:30;;;;;;;;;;;;;;;;;;5000409;28;4811;-59
2023/09/12 12:36:55;;;;;;;;;;;;;;;;;;4989503;28;4544;-60
2023/09/12 12:39:21;;;;;;;;;;;;;;;;;;4990948;28;5228;-59
2023/09/12 12:41:47;;;;;;;;;;;;;;;;;;5004125;28;4973;-60
2023/09/12 12:44:13;;;;;;;;;;;;;;;;;;5022060;28;4704;-60
2023/09/12 12:46:48;;;;;;;;;;;;;;;;;;5003498;28;1153;-59
2023/09/12 12:49:14;;;;;;;;;;;;;;;;;;5008796;28;5128;-60
2023/09/12 12:51:40;;;;;;;;;;;;;;;;;;5011162;28;4969;-60
2023/09/12 12:54:08;;;;;;;;;;;;;;;;;;5021188;28;5185;-60
2023/09/12 12:56:33;;;;;;;;;;;;;;;;;;5002588;28;5085;-59
2023/09/12 12:59:02;;;;;;;;;;;;;;;;;;5004743;28;5097;-59
2023/09/12 13:01:27;;;;;;;;;;;;;;;;;;5002951;28;3339;-60
2023/09/12 13:03:54;;;;;;;;;;;;;;;;;;5018842;28;4982;-59
2023/09/12 13:06:19;;;;;;;;;;;;;;;;;;5007748;28;5067;-60
2023/09/12 13:08:45;;;;;;;;;;;;;;;;;;5005617;28;5467;-60
2023/09/12 13:11:11;;;;;;;;;;;;;;;;;;5007023;28;5152;-60
2023/09/12 13:13:36;;;;;;;;;;;;;;;;;;5005654;28;1404;-61
2023/09/12 13:16:04;;;;;;;;;;;;;;;;;;5021314;28;4823;-60
2023/09/12 13:18:30;;;;;;;;;;;;;;;;;;4996220;28;5026;-60
2023/09/12 13:20:55;;;;;;;;;;;;;;;;;;5005938;28;5116;-60
2023/09/12 13:23:21;;;;;;;;;;;;;;;;;;5001741;28;5011;-60
2023/09/12 13:25:46;;;;;;;;;;;;;;;;;;5005283;28;1346;-60
2023/09/12 13:28:11;;;;;;;;;;;;;;;;;;4983393;28;4423;-59
2023/09/12 13:30:36;;;;;;;;;;;;;;;;;;5022021;28;4477;-59
2023/09/12 13:33:03;;;;;;;;;;;;;;;;;;5005206;28;5015;-59
2023/09/12 13:35:28;;;;;;;;;;;;;;;;;;4988731;28;5204;-59
2023/09/12 13:37:53;;;;;;;;;;;;;;;;;;5007938;28;5031;-60
2023/09/12 13:40:19;;;;;;;;;;;;;;;;;;5007884;28;3076;-61
2023/09/12 13:42:45;;;;;;;;;;;;;;;;;;5005655;28;5053;-62
2023/09/12 13:45:10;;;;;;;;;;;;;;;;;;5001937;28;4459;-65
2023/09/12 13:47:35;;;;;;;;;;;;;;;;;;5004366;28;5051;-65
2023/09/12 13:50:01;;;;;;;;;;;;;;;;;;5007346;28;5104;-64
2023/09/12 13:52:27;;;;;;;;;;;;;;;;;;4994393;28;3199;-65
2023/09/12 13:54:52;;;;;;;;;;;;;;;;;;5000806;28;4638;-59
2023/09/12 13:57:17;;;;;;;;;;;;;;;;;;5006140;28;5322;-61
2023/09/12 13:59:43;;;;;;;;;;;;;;;;;;5000087;28;4869;-62
2023/09/12 14:02:08;;;;;;;;;;;;;;;;;;5001141;28;4605;-62
2023/09/12 14:04:34;;;;;;;;;;;;;;;;;;4988844;28;3348;-62
2023/09/12 14:06:59;;;;;;;;;;;;;;;;;;5007099;28;4987;-62
2023/09/12 14:09:25;;;;;;;;;;;;;;;;;;5004498;28;4503;-62
2023/09/12 14:11:50;;;;;;;;;;;;;;;;;;5002975;28;5040;-62
2023/09/12 14:14:16;;;;;;;;;;;;;;;;;;4987219;28;5182;-61
2023/09/12 14:16:42;;;;;;;;;;;;;;;;;;5007390;28;3302;-61
2023/09/12 14:19:07;;;;;;;;;;;;;;;;;;5007331;28;5018;-60
2023/09/12 14:21:33;;;;;;;;;;;;;;;;;;5008058;28;5057;-61
2023/09/12 14:23:58;;;;;;;;;;;;;;;;;;5008103;28;5038;-61
2023/09/12 14:26:23;;;;;;;;;;;;;;;;;;5004866;28;4886;-61
2023/09/12 14:28:49;;;;;;;;;;;;;;;;;;5006905;28;5038;-63
2023/09/12 14:31:15;;;;;;;;;;;;;;;;;;5006843;28;3261;-60
2023/09/12 14:33:41;;;;;;;;;;;;;;;;;;5005330;28;4643;-61
2023/09/12 14:36:07;;;;;;;;;;;;;;;;;;5005334;28;5318;-61
2023/09/12 14:38:32;;;;;;;;;;;;;;;;;;5003177;28;5111;-56
2023/09/12 14:40:58;;;;;;;;;;;;;;;;;;5005395;28;4531;-59
2023/09/12 14:43:23;;;;;;;;;;;;;;;;;;5002319;28;3505;-59
2023/09/12 14:45:48;;;;;;;;;;;;;;;;;;5001554;28;5570;-59
2023/09/12 14:48:14;;;;;;;;;;;;;;;;;;5006266;28;5008;-59
2023/09/12 14:50:39;;;;;;;;;;;;;;;;;;5008357;28;4977;-59
2023/09/12 14:53:04;;;;;;;;;;;;;;;;;;5005996;28;5100;-57
2023/09/12 14:55:29;;;;;;;;;;;;;;;;;;5007929;28;1157;-58
2023/09/12 14:57:56;;;;;;;;;;;;;;;;;;5008973;28;4449;-58
2023/09/12 15:00:22;;;;;;;;;;;;;;;;;;5009478;28;4615;-58
2023/09/12 15:02:47;;;;;;;;;;;;;;;;;;5007795;28;5222;-58
2023/09/12 15:05:12;;;;;;;;;;;;;;;;;;5009016;28;4998;-58
2023/09/12 15:07:38;;;;;;;;;;;;;;;;;;5009288;28;1272;-58
2023/09/12 15:10:04;;;;;;;;;;;;;;;;;;5002062;28;4942;-58
2023/09/12 15:12:29;;;;;;;;;;;;;;;;;;5005804;28;4622;-57
2023/09/12 15:14:55;;;;;;;;;;;;;;;;;;5008741;28;5035;-58
2023/09/12 15:17:20;;;;;;;;;;;;;;;;;;5010497;28;4475;-58
2023/09/12 15:19:45;;;;;;;;;;;;;;;;;;5007778;28;1942;-59
2023/09/12 15:22:11;;;;;;;;;;;;;;;;;;5010341;28;4511;-57
2023/09/12 15:24:36;;;;;;;;;;;;;;;;;;5005368;28;4988;-58
2023/09/12 15:27:01;;;;;;;;;;;;;;;;;;5008070;28;4479;-58
2023/09/12 15:29:26;;;;;;;;;;;;;;;;;;5009192;28;5029;-58
2023/09/12 15:31:52;;;;;;;;;;;;;;;;;;5008969;28;5093;-58
2023/09/12 15:34:18;;;;;;;;;;;;;;;;;;5007011;28;4910;-58
2023/09/12 15:36:44;;;;;;;;;;;;;;;;;;5004273;28;4978;-58
2023/09/12 15:39:09;;;;;;;;;;;;;;;;;;5008248;28;5000;-58
2023/09/12 15:41:35;;;;;;;;;;;;;;;;;;5006481;28;5108;-58
2023/09/12 15:44:02;;;;;;;;;;;;;;;;;;5023559;28;5021;-58
2023/09/12 15:46:28;;;;;;;;;;;;;;;;;;5009049;28;1361;-58
2023/09/12 15:48:54;;;;;;;;;;;;;;;;;;5006739;28;5079;-58
2023/09/12 15:51:20;;;;;;;;;;;;;;;;;;5005368;28;4594;-58
2023/09/12 15:53:45;;;;;;;;;;;;;;;;;;5009550;28;4895;-58
2023/09/12 15:56:11;;;;;;;;;;;;;;;;;;5005891;28;4443;-58
2023/09/12 15:58:36;;;;;;;;;;;;;;;;;;5007339;28;2538;-58
2023/09/12 16:01:03;;;;;;;;;;;;;;;;;;5008823;28;5102;-58
2023/09/12 16:03:28;;;;;;;;;;;;;;;;;;5006534;28;5007;-59
2023/09/12 16:05:54;;;;;;;;;;;;;;;;;;5007211;28;4439;-57
2023/09/12 16:08:20;;;;;;;;;;;;;;;;;;5009738;28;5011;-58
2023/09/12 16:10:45;;;;;;;;;;;;;;;;;;5006413;28;1259;-59
2023/09/12 16:13:10;;;;;;;;;;;;;;;;;;4990642;28;5018;-59
2023/09/12 16:15:36;;;;;;;;;;;;;;;;;;5005662;28;4392;-58
2023/09/12 16:18:01;;;;;;;;;;;;;;;;;;5007879;28;5218;-58
2023/09/12 16:20:26;;;;;;;;;;;;;;;;;;5009109;28;5091;-57
2023/09/12 16:22:52;;;;;;;;;;;;;;;;;;5008740;28;5030;-58
2023/09/12 16:25:17;;;;;;;;;;;;;;;;;;5009912;28;1138;-58
2023/09/12 16:27:42;;;;;;;;;;;;;;;;;;4999596;28;5027;-58
2023/09/12 16:30:08;;;;;;;;;;;;;;;;;;5003770;28;4873;-58
2023/09/12 16:32:34;;;;;;;;;;;;;;;;;;5004655;28;4838;-59
2023/09/12 16:35:01;;;;;;;;;;;;;;;;;;5008914;28;5082;-57
2023/09/12 16:37:26;;;;;;;;;;;;;;;;;;5007534;28;1121;-58
2023/09/12 16:39:51;;;;;;;;;;;;;;;;;;5023837;28;4917;-59
2023/09/12 16:42:17;;;;;;;;;;;;;;;;;;4997202;28;4644;-58
2023/09/12 16:44:42;;;;;;;;;;;;;;;;;;5005686;28;4874;-58
2023/09/12 16:47:07;;;;;;;;;;;;;;;;;;5007447;28;5048;-58
2023/09/12 16:49:34;;;;;;;;;;;;;;;;;;5008882;28;1160;-58
2023/09/12 16:51:59;;;;;;;;;;;;;;;;;;5001667;28;5058;-58
2023/09/12 16:54:24;;;;;;;;;;;;;;;;;;5007844;28;4930;-58